createdAt,value
2018-08-28T00:01:33.325Z,71.27
2018-08-28T00:04:00.521Z,71.81
2018-08-28T00:06:27.754Z,71.32
2018-08-28T00:08:54.997Z,71.23
2018-08-28T00:11:22.262Z,71.38
2018-08-28T00:13:49.567Z,71.70
2018-08-28T00:16:16.793Z,71.35
2018-08-28T00:21:53.462Z,71.77
2018-08-28T00:24:20.682Z,72.07
2018-08-28T00:26:47.889Z,71.75
2018-08-28T00:29:15.089Z,72.31
2018-08-28T00:31:42.312Z,72.27
2018-08-28T00:34:09.505Z,72.18
2018-08-28T00:36:36.928Z,72.66
2018-08-28T00:39:04.922Z,72.36
2018-08-28T00:41:32.145Z,72.24
2018-08-28T00:43:59.369Z,71.99
2018-08-28T00:46:26.597Z,71.58
2018-08-28T00:48:53.801Z,71.65
2018-08-28T00:51:21.058Z,71.42
2018-08-28T00:53:48.278Z,71.57
2018-08-28T00:56:15.506Z,71.70
2018-08-28T00:58:49.279Z,71.46
2018-08-28T01:01:16.523Z,71.87
2018-08-28T01:03:43.767Z,71.39
2018-08-28T01:06:10.993Z,71.55
2018-08-28T01:08:38.222Z,72.19
2018-08-28T01:11:06.041Z,72.30
2018-08-28T01:13:33.286Z,72.59
2018-08-28T01:16:00.500Z,72.07
2018-08-28T01:18:27.783Z,72.19
2018-08-28T01:20:54.987Z,72.53
2018-08-28T01:23:22.224Z,72.74
2018-08-28T01:25:49.418Z,73.18
2018-08-28T01:28:16.725Z,73.06
2018-08-28T01:30:43.929Z,73.55
2018-08-28T01:33:11.160Z,73.39
2018-08-28T01:35:38.362Z,73.76
2018-08-28T01:38:05.590Z,73.77
2018-08-28T01:40:32.782Z,73.57
2018-08-28T01:43:00.297Z,73.77
2018-08-28T01:45:27.585Z,72.24
2018-08-28T01:47:54.853Z,70.92
2018-08-28T01:50:22.138Z,70.20
2018-08-28T01:52:49.441Z,69.43
2018-08-28T01:55:16.642Z,69.42
2018-08-28T01:57:43.884Z,69.29
2018-08-28T02:00:11.138Z,69.24
2018-08-28T02:02:38.531Z,67.95
2018-08-28T02:05:06.065Z,67.91
2018-08-28T02:07:33.305Z,66.90
2018-08-28T02:10:00.506Z,65.95
2018-08-28T02:12:27.759Z,65.85
2018-08-28T02:14:55.186Z,64.50
2018-08-28T02:17:22.417Z,63.91
2018-08-28T02:19:49.618Z,63.90
2018-08-28T02:22:16.849Z,63.34
2018-08-28T02:24:44.046Z,63.20
2018-08-28T02:27:11.269Z,62.44
2018-08-28T02:29:38.466Z,62.62
2018-08-28T02:32:05.731Z,62.08
2018-08-28T02:34:32.947Z,62.68
2018-08-28T02:37:00.182Z,62.44
2018-08-28T02:39:27.430Z,62.12
2018-08-28T02:41:54.655Z,62.29
2018-08-28T02:44:21.864Z,62.01
2018-08-28T02:46:49.071Z,62.57
2018-08-28T02:49:16.295Z,61.96
2018-08-28T02:51:43.496Z,62.46
2018-08-28T02:54:10.738Z,62.60
2018-08-28T02:56:37.943Z,62.22
2018-08-28T02:59:05.246Z,62.50
2018-08-28T03:01:32.466Z,62.65
2018-08-28T03:03:59.711Z,62.40
2018-08-28T03:06:26.958Z,62.78
2018-08-28T03:08:54.171Z,62.16
2018-08-28T03:11:21.434Z,62.92
2018-08-28T03:13:48.648Z,62.90
2018-08-28T03:16:15.900Z,62.69
2018-08-28T03:18:44.879Z,62.85
2018-08-28T03:21:13.463Z,62.98
2018-08-28T03:23:42.352Z,62.50
2018-08-28T03:26:09.898Z,62.66
2018-08-28T03:28:37.117Z,63.19
2018-08-28T03:31:04.619Z,62.86
2018-08-28T03:33:31.837Z,63.16
2018-08-28T03:35:59.043Z,63.25
2018-08-28T03:38:26.295Z,63.62
2018-08-28T03:40:53.534Z,63.60
2018-08-28T03:43:20.763Z,63.96
2018-08-28T03:45:48.195Z,63.90
2018-08-28T03:48:15.426Z,64.04
2018-08-28T03:50:42.654Z,63.56
2018-08-28T03:53:09.867Z,63.83
2018-08-28T03:55:37.062Z,63.93
2018-08-28T03:58:04.313Z,63.62
2018-08-28T04:00:31.505Z,64.23
2018-08-28T04:02:58.745Z,63.93
2018-08-28T04:05:25.972Z,64.17
2018-08-28T04:07:53.242Z,64.08
2018-08-28T04:10:20.472Z,64.17
2018-08-28T04:12:47.691Z,64.20
2018-08-28T04:15:14.925Z,64.21
2018-08-28T04:17:45.993Z,64.46
2018-08-28T04:20:13.247Z,64.39
2018-08-28T04:22:40.484Z,64.23
2018-08-28T04:25:07.767Z,64.11
2018-08-28T04:27:34.977Z,63.52
2018-08-28T04:30:02.286Z,63.29
2018-08-28T04:32:29.514Z,63.91
2018-08-28T04:34:56.737Z,63.61
2018-08-28T04:37:24.021Z,63.55
2018-08-28T04:39:51.242Z,62.99
2018-08-28T04:42:18.462Z,63.38
2018-08-28T04:44:45.742Z,63.35
2018-08-28T04:47:12.950Z,63.45
2018-08-28T04:49:40.178Z,63.26
2018-08-28T04:52:07.394Z,63.07
2018-08-28T04:54:34.673Z,63.54
2018-08-28T04:57:01.946Z,63.79
2018-08-28T04:59:29.183Z,63.94
2018-08-28T05:01:56.414Z,63.33
2018-08-28T05:04:23.690Z,64.00
2018-08-28T05:06:50.933Z,64.08
2018-08-28T05:09:18.183Z,64.03
2018-08-28T05:11:45.464Z,63.52
2018-08-28T05:14:12.683Z,63.51
2018-08-28T05:16:39.920Z,63.88
2018-08-28T05:19:07.194Z,63.25
2018-08-28T05:21:35.207Z,63.30
2018-08-28T05:24:02.543Z,63.47
2018-08-28T05:26:29.777Z,63.10
2018-08-28T05:28:57.047Z,63.33
2018-08-28T05:31:24.830Z,63.24
2018-08-28T05:33:52.172Z,63.21
2018-08-28T05:36:19.402Z,62.49
2018-08-28T05:38:46.680Z,62.50
2018-08-28T05:41:13.933Z,62.30
2018-08-28T05:43:41.211Z,61.89
2018-08-28T05:46:08.449Z,61.79
2018-08-28T05:48:36.298Z,61.21
2018-08-28T05:51:03.550Z,60.62
2018-08-28T05:53:30.842Z,60.81
2018-08-28T05:55:58.358Z,60.83
2018-08-28T05:58:25.868Z,60.72
2018-08-28T06:00:53.196Z,61.30
2018-08-28T06:03:20.567Z,61.49
2018-08-28T06:05:47.757Z,60.71
2018-08-28T06:08:15.007Z,60.65
2018-08-28T06:10:42.289Z,60.65
2018-08-28T06:13:09.742Z,59.49
2018-08-28T06:15:37.002Z,59.79
2018-08-28T06:18:04.361Z,59.27
2018-08-28T06:20:31.629Z,58.79
2018-08-28T06:22:58.867Z,58.67
2018-08-28T06:25:26.131Z,58.89
2018-08-28T06:27:53.993Z,59.04
2018-08-28T06:30:21.250Z,58.79
2018-08-28T06:32:48.522Z,58.00
2018-08-28T06:35:15.784Z,57.76
2018-08-28T06:37:43.035Z,58.58
2018-08-28T06:40:10.361Z,57.93
2018-08-28T06:42:37.583Z,57.59
2018-08-28T06:45:04.961Z,57.62
2018-08-28T06:47:45.027Z,57.47
2018-08-28T06:50:26.490Z,56.78
2018-08-28T06:53:09.281Z,57.14
2018-08-28T06:55:37.915Z,57.25
2018-08-28T06:58:06.075Z,57.43
2018-08-28T07:00:34.272Z,57.33
2018-08-28T07:03:01.919Z,56.81
2018-08-28T07:05:43.783Z,56.44
2018-08-28T07:08:26.770Z,56.35
2018-08-28T07:11:04.092Z,56.03
2018-08-28T07:13:31.501Z,56.35
2018-08-28T07:15:58.926Z,56.52
2018-08-28T07:18:26.585Z,56.92
2018-08-28T07:20:53.818Z,56.63
2018-08-28T07:23:21.041Z,56.42
2018-08-28T07:25:48.319Z,56.23
2018-08-28T07:28:15.594Z,56.05
2018-08-28T07:30:43.230Z,54.46
2018-08-28T07:33:10.437Z,53.17
2018-08-28T07:35:37.694Z,52.84
2018-08-28T07:38:04.931Z,50.11
2018-08-28T07:40:32.154Z,48.89
2018-08-28T07:42:59.487Z,47.87
2018-08-28T07:45:27.084Z,46.09
2018-08-28T07:47:55.487Z,45.61
2018-08-28T07:50:22.774Z,44.27
2018-08-28T07:52:49.971Z,44.46
2018-08-28T07:55:17.190Z,44.21
2018-08-28T07:57:44.439Z,43.60
2018-08-28T08:00:11.673Z,43.37
2018-08-28T08:02:38.938Z,42.95
2018-08-28T08:05:06.433Z,42.38
2018-08-28T08:07:33.881Z,41.40
2018-08-28T08:10:01.090Z,39.82
2018-08-28T08:12:28.379Z,39.78
2018-08-28T08:14:55.590Z,39.36
2018-08-28T08:17:22.853Z,38.44
2018-08-28T08:19:50.110Z,37.39
2018-08-28T08:22:17.548Z,36.58
2018-08-28T08:24:45.265Z,37.65
2018-08-28T08:27:12.693Z,37.16
2018-08-28T08:29:39.925Z,38.10
2018-08-28T08:32:07.286Z,37.59
2018-08-28T08:34:34.533Z,36.53
2018-08-28T08:37:01.922Z,36.60
2018-08-28T08:39:29.146Z,37.75
2018-08-28T08:41:56.418Z,37.33
2018-08-28T08:44:23.675Z,35.99
2018-08-28T08:46:51.002Z,35.54
2018-08-28T08:49:18.246Z,34.53
2018-08-28T08:51:45.558Z,33.67
2018-08-28T08:54:12.810Z,33.84
2018-08-28T08:56:40.088Z,35.09
2018-08-28T08:59:07.315Z,33.22
2018-08-28T09:01:34.566Z,33.74
2018-08-28T09:04:02.313Z,32.64
2018-08-28T09:06:29.567Z,33.23
2018-08-28T09:08:56.795Z,31.96
2018-08-28T09:11:24.103Z,32.26
2018-08-28T09:13:51.341Z,31.20
2018-08-28T09:16:18.582Z,29.22
2018-08-28T09:18:45.846Z,29.99
2018-08-28T09:21:13.147Z,29.05
2018-08-28T09:23:40.386Z,30.46
2018-08-28T09:26:07.605Z,30.49
2018-08-28T09:28:34.872Z,28.22
2018-08-28T09:31:02.094Z,27.96
2018-08-28T09:33:29.328Z,27.95
2018-08-28T09:35:56.544Z,27.61
2018-08-28T09:38:23.857Z,27.19
2018-08-28T09:40:51.019Z,27.68
2018-08-28T09:43:18.266Z,27.45
2018-08-28T09:45:45.477Z,28.87
2018-08-28T09:48:12.776Z,30.16
2018-08-28T09:50:40.043Z,30.00
2018-08-28T09:53:07.255Z,31.90
2018-08-28T09:55:34.452Z,32.12
2018-08-28T09:58:01.684Z,33.83
2018-08-28T10:00:29.183Z,33.86
2018-08-28T10:02:57.411Z,34.02
2018-08-28T10:05:24.869Z,34.90
2018-08-28T10:07:52.209Z,35.41
2018-08-28T10:10:19.402Z,33.99
2018-08-28T10:12:46.670Z,32.56
2018-08-28T10:15:13.901Z,30.61
2018-08-28T10:17:41.606Z,30.23
2018-08-28T10:20:08.971Z,30.44
2018-08-28T10:22:36.255Z,30.75
2018-08-28T10:25:03.702Z,31.53
2018-08-28T10:27:30.977Z,31.75
2018-08-28T10:29:58.302Z,31.60
2018-08-28T10:32:25.526Z,31.27
2018-08-28T10:34:52.767Z,30.31
2018-08-28T10:37:20.067Z,29.36
2018-08-28T10:39:47.300Z,28.45
2018-08-28T10:42:14.527Z,28.87
2018-08-28T10:44:41.781Z,27.57
2018-08-28T10:47:09.019Z,27.89
2018-08-28T10:49:36.386Z,27.35
2018-08-28T10:52:03.719Z,27.48
2018-08-28T10:54:30.934Z,27.01
2018-08-28T10:56:58.159Z,28.54
2018-08-28T10:59:25.465Z,30.30
2018-08-28T11:01:52.673Z,32.07
2018-08-28T11:04:19.991Z,32.74
2018-08-28T11:06:47.258Z,32.69
2018-08-28T11:09:14.509Z,33.08
2018-08-28T11:11:41.955Z,33.67
2018-08-28T11:14:09.263Z,31.50
2018-08-28T11:16:36.494Z,31.08
2018-08-28T11:19:03.799Z,29.45
2018-08-28T11:21:31.126Z,27.61
2018-08-28T11:23:58.378Z,27.29
2018-08-28T11:26:25.630Z,26.99
2018-08-28T11:28:52.882Z,26.01
2018-08-28T11:31:20.254Z,25.66
2018-08-28T11:33:47.696Z,26.48
2018-08-28T11:36:15.190Z,25.87
2018-08-28T11:38:42.424Z,25.34
2018-08-28T11:41:09.609Z,25.29
2018-08-28T11:43:36.870Z,25.68
2018-08-28T11:46:04.101Z,25.30
2018-08-28T11:48:31.358Z,25.40
2018-08-28T11:50:58.581Z,26.31
2018-08-28T11:53:25.814Z,27.63
2018-08-28T11:55:53.010Z,27.69
2018-08-28T11:58:20.329Z,26.90
2018-08-28T12:00:47.627Z,26.61
2018-08-28T12:03:14.850Z,26.53
2018-08-28T12:05:42.063Z,25.04
2018-08-28T12:08:09.303Z,25.40
2018-08-28T12:10:36.546Z,25.71
2018-08-28T12:13:03.878Z,25.63
2018-08-28T12:15:32.856Z,25.68
2018-08-28T12:18:00.106Z,24.40
2018-08-28T12:20:27.414Z,24.92
2018-08-28T12:22:54.591Z,24.94
2018-08-28T12:25:21.798Z,25.20
2018-08-28T12:27:49.073Z,24.24
2018-08-28T12:30:16.490Z,24.63
2018-08-28T12:32:43.702Z,24.04
2018-08-28T12:35:10.957Z,24.07
2018-08-28T12:37:39.079Z,24.25
2018-08-28T12:40:06.411Z,24.17
2018-08-28T12:42:33.673Z,25.42
2018-08-28T12:45:01.122Z,24.67
2018-08-28T12:47:28.588Z,24.33
2018-08-28T12:49:55.813Z,23.53
2018-08-28T12:52:23.036Z,24.45
2018-08-28T12:54:50.305Z,24.17
2018-08-28T12:57:17.823Z,23.96
2018-08-28T12:59:45.118Z,23.59
2018-08-28T13:02:12.404Z,23.89
2018-08-28T13:04:40.438Z,24.46
2018-08-28T13:07:07.876Z,25.54
2018-08-28T13:09:35.170Z,25.14
2018-08-28T13:12:02.407Z,25.79
2018-08-28T13:14:29.768Z,25.22
2018-08-28T13:16:56.990Z,25.41
2018-08-28T13:19:24.278Z,26.45
2018-08-28T13:21:51.542Z,25.85
2018-08-28T13:24:18.823Z,26.25
2018-08-28T13:26:46.074Z,26.04
2018-08-28T13:29:13.333Z,27.16
2018-08-28T13:31:40.532Z,27.12
2018-08-28T13:34:08.085Z,27.16
2018-08-28T13:36:35.349Z,27.72
2018-08-28T13:39:03.121Z,26.94
2018-08-28T13:41:30.399Z,28.04
2018-08-28T13:43:57.624Z,27.21
2018-08-28T13:46:24.941Z,28.63
2018-08-28T13:48:52.199Z,27.65
2018-08-28T13:51:19.489Z,27.17
2018-08-28T13:53:46.734Z,27.30
2018-08-28T13:56:14.161Z,26.34
2018-08-28T13:58:41.449Z,27.34
2018-08-28T14:01:08.692Z,27.48
2018-08-28T14:03:35.974Z,28.06
2018-08-28T14:06:03.212Z,27.82
2018-08-28T14:08:30.475Z,28.23
2018-08-28T14:10:57.710Z,28.01
2018-08-28T14:13:25.115Z,28.08
2018-08-28T14:15:52.257Z,28.04
2018-08-28T14:18:19.529Z,28.74
2018-08-28T14:20:46.762Z,29.17
2018-08-28T14:23:14.037Z,28.76
2018-08-28T14:25:41.269Z,28.70
2018-08-28T14:28:08.486Z,28.03
2018-08-28T14:30:35.827Z,28.34
2018-08-28T14:33:03.186Z,28.70
2018-08-28T14:35:30.703Z,29.10
2018-08-28T14:37:57.889Z,29.42
2018-08-28T14:40:25.166Z,29.40
2018-08-28T14:42:54.377Z,28.72
2018-08-28T14:45:27.945Z,29.23
2018-08-28T14:47:55.742Z,29.79
2018-08-28T14:50:30.549Z,28.88
2018-08-28T14:52:59.099Z,29.21
2018-08-28T14:55:34.814Z,29.54
2018-08-28T14:58:08.866Z,29.79
2018-08-28T15:00:36.167Z,30.91
2018-08-28T15:03:03.414Z,30.45
2018-08-28T15:05:30.721Z,30.29
2018-08-28T15:07:57.981Z,30.04
2018-08-28T15:10:26.104Z,30.40
2018-08-28T15:12:53.326Z,30.49
2018-08-28T15:15:20.590Z,30.34
2018-08-28T15:17:47.833Z,30.71
2018-08-28T15:20:15.128Z,30.68
2018-08-28T15:22:42.363Z,30.61
2018-08-28T15:25:12.458Z,30.50
2018-08-28T15:27:39.838Z,30.76
2018-08-28T15:30:07.061Z,30.65
2018-08-28T15:32:34.389Z,30.74
2018-08-28T15:35:02.839Z,30.36
2018-08-28T15:37:30.168Z,31.14
2018-08-28T15:39:57.419Z,31.67
2018-08-28T15:42:24.798Z,30.88
2018-08-28T15:44:52.034Z,30.34
2018-08-28T15:47:19.528Z,31.26
2018-08-28T15:49:46.763Z,31.00
2018-08-28T15:52:14.051Z,31.31
2018-08-28T15:54:41.345Z,31.75
2018-08-28T15:57:08.748Z,31.83
2018-08-28T15:59:36.531Z,31.16
2018-08-28T16:02:03.911Z,31.63
2018-08-28T16:04:31.105Z,31.36
2018-08-28T16:06:58.376Z,32.43
2018-08-28T16:09:25.632Z,32.45
2018-08-28T16:11:52.919Z,32.18
2018-08-28T16:14:20.154Z,32.95
2018-08-28T16:16:47.415Z,32.68
2018-08-28T16:19:14.819Z,33.07
2018-08-28T16:21:44.807Z,33.61
2018-08-28T16:24:12.126Z,33.59
2018-08-28T16:26:39.534Z,33.65
2018-08-28T16:29:07.116Z,34.00
2018-08-28T16:31:34.592Z,34.37
2018-08-28T16:34:02.159Z,34.58
2018-08-28T16:36:30.144Z,34.85
2018-08-28T16:38:57.524Z,34.66
2018-08-28T16:41:24.815Z,34.06
2018-08-28T16:43:52.015Z,35.00
2018-08-28T16:46:19.272Z,34.42
2018-08-28T16:48:46.511Z,34.81
2018-08-28T16:51:13.772Z,34.87
2018-08-28T16:53:41.013Z,35.23
2018-08-28T16:56:08.331Z,35.15
2018-08-28T16:58:35.577Z,35.29
2018-08-28T17:01:02.821Z,35.01
2018-08-28T17:03:30.070Z,35.65
2018-08-28T17:05:57.317Z,35.46
2018-08-28T17:08:24.582Z,35.55
2018-08-28T17:10:51.819Z,35.84
2018-08-28T17:13:19.081Z,35.84
2018-08-28T17:15:46.319Z,35.71
2018-08-28T17:18:13.667Z,36.04
2018-08-28T17:20:40.997Z,36.17
2018-08-28T17:23:08.407Z,36.22
2018-08-28T17:25:35.635Z,35.98
2018-08-28T17:28:02.958Z,36.61
2018-08-28T17:30:30.205Z,36.39
2018-08-28T17:32:57.500Z,36.52
2018-08-28T17:35:25.435Z,36.77
2018-08-28T17:37:52.794Z,37.00
2018-08-28T17:40:20.985Z,36.99
2018-08-28T17:42:48.455Z,37.06
2018-08-28T17:45:15.851Z,37.32
2018-08-28T17:47:43.284Z,37.57
2018-08-28T17:50:10.778Z,37.61
2018-08-28T17:52:38.304Z,37.69
2018-08-28T17:55:05.846Z,38.00
2018-08-28T17:57:33.799Z,37.91
2018-08-28T18:00:01.054Z,38.25
2018-08-28T18:02:28.294Z,38.53
2018-08-28T18:04:55.876Z,38.63
2018-08-28T18:07:23.212Z,38.71
2018-08-28T18:09:50.583Z,39.14
2018-08-28T18:12:18.121Z,39.39
2018-08-28T18:14:45.588Z,39.66
2018-08-28T18:17:12.915Z,41.09
2018-08-28T18:19:40.278Z,41.81
2018-08-28T18:22:07.743Z,42.42
2018-08-28T18:24:35.330Z,42.62
2018-08-28T18:27:02.587Z,42.87
2018-08-28T18:29:30.044Z,43.22
2018-08-28T18:31:57.390Z,43.70
2018-08-28T18:34:24.859Z,43.15
2018-08-28T18:36:52.264Z,43.71
2018-08-28T18:39:19.630Z,43.65
2018-08-28T18:41:47.019Z,43.69
2018-08-28T18:44:14.370Z,43.89
2018-08-28T18:46:41.749Z,43.88
2018-08-28T18:49:09.118Z,43.97
2018-08-28T18:51:36.378Z,44.27
2018-08-28T18:54:03.786Z,44.83
2018-08-28T18:56:31.031Z,45.96
2018-08-28T18:58:58.453Z,46.01
2018-08-28T19:01:25.963Z,46.11
2018-08-28T19:03:53.421Z,45.59
2018-08-28T19:06:20.762Z,45.35
2018-08-28T19:08:48.318Z,45.88
2018-08-28T19:11:15.784Z,46.73
2018-08-28T19:13:43.399Z,47.07
2018-08-28T19:16:11.415Z,46.57
2018-08-28T19:18:38.858Z,46.76
2018-08-28T19:21:06.933Z,46.56
2018-08-28T19:23:34.448Z,46.07
2018-08-28T19:26:01.912Z,46.43
2018-08-28T19:28:29.247Z,45.91
2018-08-28T19:30:56.808Z,45.97
2018-08-28T19:33:24.470Z,46.41
2018-08-28T19:35:51.980Z,45.96
2018-08-28T19:38:19.420Z,46.59
2018-08-28T19:40:46.924Z,47.04
2018-08-28T19:43:14.388Z,46.89
2018-08-28T19:45:42.430Z,47.13
2018-08-28T19:48:09.707Z,47.19
2018-08-28T19:50:36.979Z,47.35
2018-08-28T19:53:04.426Z,47.45
2018-08-28T19:55:31.678Z,47.97
2018-08-28T19:58:00.041Z,47.56
2018-08-28T20:00:27.312Z,47.80
2018-08-28T20:02:54.761Z,47.91
2018-08-28T20:05:22.073Z,47.99
2018-08-28T20:07:49.419Z,47.58
2018-08-28T20:10:16.779Z,47.86
2018-08-28T20:12:44.327Z,48.46
2018-08-28T20:15:11.624Z,48.43
2018-08-28T20:17:39.099Z,48.33
2018-08-28T20:20:06.443Z,48.71
2018-08-28T20:22:33.675Z,48.36
2018-08-28T20:25:00.986Z,48.46
2018-08-28T20:27:28.280Z,47.97
2018-08-28T20:29:55.626Z,48.42
2018-08-28T20:32:22.811Z,48.44
2018-08-28T20:34:50.028Z,48.30
2018-08-28T20:37:17.261Z,48.06
2018-08-28T20:39:44.536Z,48.20
2018-08-28T20:42:11.767Z,48.22
2018-08-28T20:44:38.986Z,48.73
2018-08-28T20:47:06.236Z,48.77
2018-08-28T20:49:33.469Z,48.93
2018-08-28T20:52:00.711Z,48.78
2018-08-28T20:54:27.950Z,48.75
2018-08-28T20:56:55.182Z,49.22
2018-08-28T20:59:22.404Z,48.80
2018-08-28T21:01:49.618Z,48.86
2018-08-28T21:04:16.844Z,49.00
2018-08-28T21:06:44.088Z,49.07
2018-08-28T21:09:11.377Z,49.45
2018-08-28T21:11:38.615Z,49.46
2018-08-28T21:14:05.872Z,49.12
2018-08-28T21:16:33.081Z,49.52
2018-08-28T21:19:00.345Z,49.77
2018-08-28T21:21:27.586Z,49.82
2018-08-28T21:23:54.790Z,49.48
2018-08-28T21:26:22.024Z,49.60
2018-08-28T21:28:49.321Z,50.21
2018-08-28T21:31:16.524Z,50.08
2018-08-28T21:33:43.751Z,50.27
2018-08-28T21:36:10.978Z,50.80
2018-08-28T21:38:38.194Z,50.93
2018-08-28T21:41:05.419Z,50.95
2018-08-28T21:43:32.654Z,51.15
2018-08-28T21:45:59.941Z,50.80
2018-08-28T21:48:27.168Z,50.84
2018-08-28T21:50:54.433Z,51.35
2018-08-28T21:53:21.639Z,51.71
2018-08-28T21:55:48.888Z,51.28
2018-08-28T21:58:16.152Z,51.73
2018-08-28T22:00:43.477Z,52.28
2018-08-28T22:03:10.686Z,52.46
2018-08-28T22:05:37.949Z,53.03
2018-08-28T22:08:05.467Z,53.13
2018-08-28T22:10:33.091Z,53.55
2018-08-28T22:13:00.317Z,53.79
2018-08-28T22:15:27.591Z,54.00
2018-08-28T22:17:55.097Z,54.60
2018-08-28T22:20:22.363Z,55.10
2018-08-28T22:22:50.014Z,55.28
2018-08-28T22:25:17.273Z,54.41
2018-08-28T22:27:44.473Z,54.31
2018-08-28T22:30:11.934Z,53.88
2018-08-28T22:32:40.052Z,52.92
2018-08-28T22:35:07.325Z,52.81
2018-08-28T22:37:34.586Z,52.43
2018-08-28T22:40:02.030Z,52.50
2018-08-28T22:42:29.223Z,52.05
2018-08-28T22:44:56.438Z,51.97
2018-08-28T22:47:23.624Z,52.03
2018-08-28T22:49:50.846Z,51.96
2018-08-28T22:52:18.206Z,52.01
2018-08-28T22:54:45.486Z,52.56
2018-08-28T22:57:12.702Z,52.00
2018-08-28T22:59:39.954Z,52.33
2018-08-28T23:02:07.209Z,52.73
2018-08-28T23:04:34.501Z,52.52
2018-08-28T23:07:01.758Z,52.64
2018-08-28T23:09:28.991Z,52.52
2018-08-28T23:11:56.223Z,52.87
2018-08-28T23:14:23.493Z,52.52
2018-08-28T23:16:50.882Z,52.33
2018-08-28T23:19:18.106Z,52.83
2018-08-28T23:21:45.333Z,52.48
2018-08-28T23:24:12.574Z,52.52
2018-08-28T23:26:39.822Z,52.45
2018-08-28T23:29:07.081Z,52.21
2018-08-28T23:31:34.666Z,52.24
2018-08-28T23:34:01.947Z,51.95
2018-08-28T23:36:29.201Z,52.33
2018-08-28T23:38:56.493Z,51.81
2018-08-28T23:41:23.753Z,52.21
2018-08-28T23:43:51.004Z,52.20
2018-08-28T23:46:18.497Z,52.37
2018-08-28T23:48:45.701Z,52.72
2018-08-28T23:51:12.975Z,52.08
2018-08-28T23:53:40.207Z,52.91
2018-08-28T23:56:07.754Z,52.98
2018-08-28T23:58:34.977Z,53.34
